Junin, Argentina
Current Conditions -  °F | °C
As of 3:00 PM on Wednesday 26 Nov 2014 (Local Time) from SAAR Reporting Station
Clear Clear  
Wind Chill: 82°   Ceiling: Unl
Heat Index: 82°   Visibility: 6mi
Dew Point: 59°   Wind: 14mph
Humidity: 45%   Direction: 70°ENE
Pressure: 29.88"   Gusts: NA
Location:  34.59°S, 60.96°W
Report Text: SAAR 261800Z 07012KT CAVOK 28/15 Q1012
Loading
Personal Weather Stations






























Interactive Weather Map New forecast layout! Learn more

10-Day Weather Forecast

Advertisements
Track Severe Weather on mobile